sensor_id;sensor_type;location;lat;lon;timestamp;P1;durP1;ratioP1;P2;durP2;ratioP2
12076;SDS011;12420;42.676;23.262;2022-07-22T00:00:36;8.15;;;4.45;;
12076;SDS011;12420;42.676;23.262;2022-07-22T00:03:04;4.20;;;3.90;;
12076;SDS011;12420;42.676;23.262;2022-07-22T00:05:31;4.18;;;3.83;;
12076;SDS011;12420;42.676;23.262;2022-07-22T00:07:58;6.18;;;4.10;;
12076;SDS011;12420;42.676;23.262;2022-07-22T00:10:25;4.85;;;4.40;;
12076;SDS011;12420;42.676;23.262;2022-07-22T00:12:52;7.10;;;4.30;;
12076;SDS011;12420;42.676;23.262;2022-07-22T00:15:19;6.13;;;4.10;;
12076;SDS011;12420;42.676;23.262;2022-07-22T00:17:46;8.07;;;4.35;;
12076;SDS011;12420;42.676;23.262;2022-07-22T00:20:14;5.68;;;4.28;;
12076;SDS011;12420;42.676;23.262;2022-07-22T00:22:41;6.15;;;4.32;;
12076;SDS011;12420;42.676;23.262;2022-07-22T00:25:07;4.35;;;3.95;;
12076;SDS011;12420;42.676;23.262;2022-07-22T00:27:35;11.07;;;4.80;;
12076;SDS011;12420;42.676;23.262;2022-07-22T00:30:02;6.95;;;4.20;;
12076;SDS011;12420;42.676;23.262;2022-07-22T00:32:29;8.80;;;4.60;;
12076;SDS011;12420;42.676;23.262;2022-07-22T00:34:56;7.38;;;4.25;;
12076;SDS011;12420;42.676;23.262;2022-07-22T00:37:24;11.63;;;4.50;;
12076;SDS011;12420;42.676;23.262;2022-07-22T00:39:51;5.22;;;4.57;;
12076;SDS011;12420;42.676;23.262;2022-07-22T00:42:18;5.93;;;5.00;;
12076;SDS011;12420;42.676;23.262;2022-07-22T00:44:45;4.83;;;4.43;;
12076;SDS011;12420;42.676;23.262;2022-07-22T00:47:12;5.93;;;4.68;;
12076;SDS011;12420;42.676;23.262;2022-07-22T00:49:39;10.60;;;4.32;;
12076;SDS011;12420;42.676;23.262;2022-07-22T00:52:06;5.70;;;4.40;;
12076;SDS011;12420;42.676;23.262;2022-07-22T00:54:35;8.95;;;4.55;;
12076;SDS011;12420;42.676;23.262;2022-07-22T00:57:03;9.50;;;5.23;;
12076;SDS011;12420;42.676;23.262;2022-07-22T00:59:30;8.83;;;5.33;;
12076;SDS011;12420;42.676;23.262;2022-07-22T01:01:57;10.83;;;5.87;;
12076;SDS011;12420;42.676;23.262;2022-07-22T01:04:24;6.37;;;5.10;;
12076;SDS011;12420;42.676;23.262;2022-07-22T01:06:51;6.40;;;5.00;;
12076;SDS011;12420;42.676;23.262;2022-07-22T01:09:18;7.50;;;4.68;;
12076;SDS011;12420;42.676;23.262;2022-07-22T01:11:46;10.13;;;4.80;;
12076;SDS011;12420;42.676;23.262;2022-07-22T01:14:13;14.10;;;5.87;;
12076;SDS011;12420;42.676;23.262;2022-07-22T01:16:40;9.27;;;4.73;;
12076;SDS011;12420;42.676;23.262;2022-07-22T01:19:07;7.57;;;4.90;;
12076;SDS011;12420;42.676;23.262;2022-07-22T01:21:36;8.27;;;5.20;;
12076;SDS011;12420;42.676;23.262;2022-07-22T01:24:03;7.05;;;4.88;;
12076;SDS011;12420;42.676;23.262;2022-07-22T01:26:30;10.47;;;4.63;;
12076;SDS011;12420;42.676;23.262;2022-07-22T01:28:58;11.70;;;5.27;;
12076;SDS011;12420;42.676;23.262;2022-07-22T01:31:25;7.73;;;4.73;;
12076;SDS011;12420;42.676;23.262;2022-07-22T01:33:53;8.73;;;5.10;;
12076;SDS011;12420;42.676;23.262;2022-07-22T01:36:20;8.10;;;4.60;;
12076;SDS011;12420;42.676;23.262;2022-07-22T01:38:48;6.47;;;4.80;;
12076;SDS011;12420;42.676;23.262;2022-07-22T01:41:15;5.80;;;4.73;;
12076;SDS011;12420;42.676;23.262;2022-07-22T01:43:42;5.60;;;5.07;;
12076;SDS011;12420;42.676;23.262;2022-07-22T01:46:09;9.17;;;5.00;;
12076;SDS011;12420;42.676;23.262;2022-07-22T01:48:35;7.47;;;4.87;;
12076;SDS011;12420;42.676;23.262;2022-07-22T01:51:03;9.03;;;5.40;;
12076;SDS011;12420;42.676;23.262;2022-07-22T01:53:30;9.17;;;5.07;;
12076;SDS011;12420;42.676;23.262;2022-07-22T01:55:58;6.03;;;4.90;;
12076;SDS011;12420;42.676;23.262;2022-07-22T01:58:25;7.80;;;5.10;;
12076;SDS011;12420;42.676;23.262;2022-07-22T02:00:52;7.17;;;4.83;;
12076;SDS011;12420;42.676;23.262;2022-07-22T02:03:18;6.70;;;5.07;;
12076;SDS011;12420;42.676;23.262;2022-07-22T02:05:45;8.00;;;5.10;;
12076;SDS011;12420;42.676;23.262;2022-07-22T02:08:12;7.77;;;4.67;;
12076;SDS011;12420;42.676;23.262;2022-07-22T02:10:39;8.60;;;5.03;;
12076;SDS011;12420;42.676;23.262;2022-07-22T02:13:08;6.30;;;5.10;;
12076;SDS011;12420;42.676;23.262;2022-07-22T02:15:34;8.77;;;5.37;;
12076;SDS011;12420;42.676;23.262;2022-07-22T02:18:08;7.17;;;5.37;;
12076;SDS011;12420;42.676;23.262;2022-07-22T02:20:36;5.60;;;5.00;;
12076;SDS011;12420;42.676;23.262;2022-07-22T02:23:03;7.57;;;5.03;;
12076;SDS011;12420;42.676;23.262;2022-07-22T02:25:30;6.63;;;5.07;;
12076;SDS011;12420;42.676;23.262;2022-07-22T02:27:57;8.87;;;5.23;;
12076;SDS011;12420;42.676;23.262;2022-07-22T02:30:25;9.53;;;5.77;;
12076;SDS011;12420;42.676;23.262;2022-07-22T02:32:52;8.43;;;5.77;;
12076;SDS011;12420;42.676;23.262;2022-07-22T02:35:19;10.00;;;5.13;;
12076;SDS011;12420;42.676;23.262;2022-07-22T02:37:45;7.90;;;5.23;;
12076;SDS011;12420;42.676;23.262;2022-07-22T02:40:12;9.97;;;5.30;;
12076;SDS011;12420;42.676;23.262;2022-07-22T02:42:39;11.00;;;5.30;;
12076;SDS011;12420;42.676;23.262;2022-07-22T02:45:07;8.87;;;5.47;;
12076;SDS011;12420;42.676;23.262;2022-07-22T02:47:36;17.63;;;5.80;;
12076;SDS011;12420;42.676;23.262;2022-07-22T02:50:11;9.60;;;5.40;;
12076;SDS011;12420;42.676;23.262;2022-07-22T02:52:38;14.47;;;6.13;;
12076;SDS011;12420;42.676;23.262;2022-07-22T02:55:05;11.73;;;6.17;;
12076;SDS011;12420;42.676;23.262;2022-07-22T02:57:32;9.77;;;5.50;;
12076;SDS011;12420;42.676;23.262;2022-07-22T02:59:59;13.23;;;6.50;;
12076;SDS011;12420;42.676;23.262;2022-07-22T03:02:26;8.27;;;5.70;;
12076;SDS011;12420;42.676;23.262;2022-07-22T03:04:54;13.10;;;5.60;;
12076;SDS011;12420;42.676;23.262;2022-07-22T03:07:21;8.93;;;5.90;;
12076;SDS011;12420;42.676;23.262;2022-07-22T03:09:48;9.60;;;5.63;;
12076;SDS011;12420;42.676;23.262;2022-07-22T03:12:15;8.13;;;5.70;;
12076;SDS011;12420;42.676;23.262;2022-07-22T03:14:41;12.27;;;6.07;;
12076;SDS011;12420;42.676;23.262;2022-07-22T03:17:11;10.52;;;6.07;;
12076;SDS011;12420;42.676;23.262;2022-07-22T03:19:38;12.10;;;6.10;;
12076;SDS011;12420;42.676;23.262;2022-07-22T03:22:06;8.23;;;5.60;;
12076;SDS011;12420;42.676;23.262;2022-07-22T03:24:33;12.93;;;5.70;;
12076;SDS011;12420;42.676;23.262;2022-07-22T03:27:00;10.63;;;5.80;;
12076;SDS011;12420;42.676;23.262;2022-07-22T03:29:27;10.33;;;6.50;;
12076;SDS011;12420;42.676;23.262;2022-07-22T03:31:54;10.10;;;5.93;;
12076;SDS011;12420;42.676;23.262;2022-07-22T03:34:21;9.07;;;5.97;;
12076;SDS011;12420;42.676;23.262;2022-07-22T03:36:48;7.57;;;6.17;;
12076;SDS011;12420;42.676;23.262;2022-07-22T03:39:16;7.53;;;5.40;;
12076;SDS011;12420;42.676;23.262;2022-07-22T03:41:43;8.80;;;5.70;;
12076;SDS011;12420;42.676;23.262;2022-07-22T03:44:09;8.23;;;5.67;;
12076;SDS011;12420;42.676;23.262;2022-07-22T03:46:39;11.50;;;6.70;;
12076;SDS011;12420;42.676;23.262;2022-07-22T03:49:06;23.93;;;7.60;;
12076;SDS011;12420;42.676;23.262;2022-07-22T03:51:33;16.03;;;7.30;;
12076;SDS011;12420;42.676;23.262;2022-07-22T03:54:02;10.77;;;6.30;;
12076;SDS011;12420;42.676;23.262;2022-07-22T03:56:31;12.63;;;6.90;;
12076;SDS011;12420;42.676;23.262;2022-07-22T03:58:57;12.63;;;6.70;;
12076;SDS011;12420;42.676;23.262;2022-07-22T04:01:24;11.23;;;6.70;;
12076;SDS011;12420;42.676;23.262;2022-07-22T04:03:51;11.13;;;6.80;;
12076;SDS011;12420;42.676;23.262;2022-07-22T04:06:18;11.67;;;7.07;;
12076;SDS011;12420;42.676;23.262;2022-07-22T04:08:45;12.97;;;6.73;;
12076;SDS011;12420;42.676;23.262;2022-07-22T04:11:12;9.20;;;6.50;;
12076;SDS011;12420;42.676;23.262;2022-07-22T04:13:40;9.97;;;6.97;;
12076;SDS011;12420;42.676;23.262;2022-07-22T04:16:07;15.20;;;7.40;;
12076;SDS011;12420;42.676;23.262;2022-07-22T04:18:33;11.13;;;6.83;;
12076;SDS011;12420;42.676;23.262;2022-07-22T04:21:00;15.90;;;7.47;;
12076;SDS011;12420;42.676;23.262;2022-07-22T04:23:27;11.73;;;7.03;;
12076;SDS011;12420;42.676;23.262;2022-07-22T04:25:54;12.90;;;6.97;;
12076;SDS011;12420;42.676;23.262;2022-07-22T04:28:21;14.33;;;6.70;;
12076;SDS011;12420;42.676;23.262;2022-07-22T04:30:49;17.57;;;7.40;;
12076;SDS011;12420;42.676;23.262;2022-07-22T04:33:16;10.73;;;7.53;;
12076;SDS011;12420;42.676;23.262;2022-07-22T04:35:42;17.03;;;7.30;;
12076;SDS011;12420;42.676;23.262;2022-07-22T04:38:09;18.30;;;7.60;;
12076;SDS011;12420;42.676;23.262;2022-07-22T04:40:39;15.13;;;7.60;;
12076;SDS011;12420;42.676;23.262;2022-07-22T04:43:06;10.63;;;7.60;;
12076;SDS011;12420;42.676;23.262;2022-07-22T04:45:33;18.73;;;7.07;;
12076;SDS011;12420;42.676;23.262;2022-07-22T04:48:01;18.48;;;7.18;;
12076;SDS011;12420;42.676;23.262;2022-07-22T04:50:28;8.90;;;6.47;;
12076;SDS011;12420;42.676;23.262;2022-07-22T04:52:55;12.83;;;6.10;;
12076;SDS011;12420;42.676;23.262;2022-07-22T04:55:22;9.02;;;6.25;;
12076;SDS011;12420;42.676;23.262;2022-07-22T04:57:48;16.50;;;6.47;;
12076;SDS011;12420;42.676;23.262;2022-07-22T05:00:15;10.27;;;6.60;;
12076;SDS011;12420;42.676;23.262;2022-07-22T05:02:42;15.35;;;6.50;;
12076;SDS011;12420;42.676;23.262;2022-07-22T05:05:13;10.20;;;6.60;;
12076;SDS011;12420;42.676;23.262;2022-07-22T05:07:40;13.90;;;6.55;;
12076;SDS011;12420;42.676;23.262;2022-07-22T05:10:07;14.63;;;6.75;;
12076;SDS011;12420;42.676;23.262;2022-07-22T05:12:35;10.00;;;6.40;;
12076;SDS011;12420;42.676;23.262;2022-07-22T05:15:02;11.88;;;5.93;;
12076;SDS011;12420;42.676;23.262;2022-07-22T05:17:32;8.68;;;6.20;;
12076;SDS011;12420;42.676;23.262;2022-07-22T05:19:59;11.80;;;6.13;;
12076;SDS011;12420;42.676;23.262;2022-07-22T05:22:29;10.90;;;6.30;;
12076;SDS011;12420;42.676;23.262;2022-07-22T05:24:56;15.35;;;6.57;;
12076;SDS011;12420;42.676;23.262;2022-07-22T05:27:25;12.32;;;6.63;;
12076;SDS011;12420;42.676;23.262;2022-07-22T05:29:52;14.27;;;6.22;;
12076;SDS011;12420;42.676;23.262;2022-07-22T05:32:18;12.90;;;6.15;;
12076;SDS011;12420;42.676;23.262;2022-07-22T05:34:45;9.40;;;6.45;;
12076;SDS011;12420;42.676;23.262;2022-07-22T05:37:16;18.40;;;6.72;;
12076;SDS011;12420;42.676;23.262;2022-07-22T05:39:45;13.48;;;6.03;;
12076;SDS011;12420;42.676;23.262;2022-07-22T05:42:14;13.82;;;6.90;;
12076;SDS011;12420;42.676;23.262;2022-07-22T05:44:41;12.70;;;6.25;;
12076;SDS011;12420;42.676;23.262;2022-07-22T05:47:08;12.57;;;6.93;;
12076;SDS011;12420;42.676;23.262;2022-07-22T05:49:35;9.05;;;6.25;;
12076;SDS011;12420;42.676;23.262;2022-07-22T05:52:02;14.88;;;6.25;;
12076;SDS011;12420;42.676;23.262;2022-07-22T05:54:29;15.13;;;6.57;;
12076;SDS011;12420;42.676;23.262;2022-07-22T05:56:57;16.23;;;6.60;;
12076;SDS011;12420;42.676;23.262;2022-07-22T05:59:24;10.63;;;6.10;;
12076;SDS011;12420;42.676;23.262;2022-07-22T06:01:51;12.07;;;6.15;;
12076;SDS011;12420;42.676;23.262;2022-07-22T06:04:18;9.57;;;6.43;;
12076;SDS011;12420;42.676;23.262;2022-07-22T06:06:45;11.73;;;6.53;;
12076;SDS011;12420;42.676;23.262;2022-07-22T06:09:12;14.55;;;7.13;;
12076;SDS011;12420;42.676;23.262;2022-07-22T06:11:39;15.30;;;6.72;;
12076;SDS011;12420;42.676;23.262;2022-07-22T06:14:07;14.38;;;6.55;;
12076;SDS011;12420;42.676;23.262;2022-07-22T06:16:35;13.70;;;6.50;;
12076;SDS011;12420;42.676;23.262;2022-07-22T06:19:02;11.40;;;6.07;;
12076;SDS011;12420;42.676;23.262;2022-07-22T06:21:29;15.63;;;6.25;;
12076;SDS011;12420;42.676;23.262;2022-07-22T06:23:56;13.30;;;6.13;;
12076;SDS011;12420;42.676;23.262;2022-07-22T06:26:23;12.88;;;6.22;;
12076;SDS011;12420;42.676;23.262;2022-07-22T06:28:50;11.52;;;6.22;;
12076;SDS011;12420;42.676;23.262;2022-07-22T06:31:18;10.82;;;5.75;;
12076;SDS011;12420;42.676;23.262;2022-07-22T06:33:45;13.00;;;6.35;;
12076;SDS011;12420;42.676;23.262;2022-07-22T06:36:12;16.42;;;6.57;;
12076;SDS011;12420;42.676;23.262;2022-07-22T06:38:39;13.77;;;5.75;;
12076;SDS011;12420;42.676;23.262;2022-07-22T06:41:06;8.80;;;5.45;;
12076;SDS011;12420;42.676;23.262;2022-07-22T06:43:33;22.27;;;6.13;;
12076;SDS011;12420;42.676;23.262;2022-07-22T06:46:00;19.75;;;5.70;;
12076;SDS011;12420;42.676;23.262;2022-07-22T06:48:29;13.00;;;5.60;;
12076;SDS011;12420;42.676;23.262;2022-07-22T06:50:55;13.13;;;5.80;;
12076;SDS011;12420;42.676;23.262;2022-07-22T06:53:22;12.93;;;5.90;;
12076;SDS011;12420;42.676;23.262;2022-07-22T06:55:52;9.45;;;5.90;;
12076;SDS011;12420;42.676;23.262;2022-07-22T06:58:20;7.38;;;5.40;;
12076;SDS011;12420;42.676;23.262;2022-07-22T07:00:47;13.40;;;5.40;;
12076;SDS011;12420;42.676;23.262;2022-07-22T07:03:14;10.35;;;5.38;;
12076;SDS011;12420;42.676;23.262;2022-07-22T07:05:42;8.52;;;5.30;;
12076;SDS011;12420;42.676;23.262;2022-07-22T07:08:09;9.52;;;5.15;;
12076;SDS011;12420;42.676;23.262;2022-07-22T07:10:36;9.98;;;5.30;;
12076;SDS011;12420;42.676;23.262;2022-07-22T07:13:03;11.48;;;5.43;;
12076;SDS011;12420;42.676;23.262;2022-07-22T07:15:30;11.07;;;5.10;;
12076;SDS011;12420;42.676;23.262;2022-07-22T07:17:59;9.20;;;4.72;;
12076;SDS011;12420;42.676;23.262;2022-07-22T07:20:26;13.73;;;5.35;;
12076;SDS011;12420;42.676;23.262;2022-07-22T07:22:54;14.57;;;5.20;;
12076;SDS011;12420;42.676;23.262;2022-07-22T07:25:21;11.10;;;5.50;;
12076;SDS011;12420;42.676;23.262;2022-07-22T07:27:48;9.30;;;5.57;;
12076;SDS011;12420;42.676;23.262;2022-07-22T07:30:15;8.23;;;5.15;;
12076;SDS011;12420;42.676;23.262;2022-07-22T07:32:42;8.73;;;5.35;;
12076;SDS011;12420;42.676;23.262;2022-07-22T07:35:09;5.97;;;4.75;;
12076;SDS011;12420;42.676;23.262;2022-07-22T07:37:36;10.63;;;4.85;;
12076;SDS011;12420;42.676;23.262;2022-07-22T07:40:05;10.45;;;5.05;;
12076;SDS011;12420;42.676;23.262;2022-07-22T07:42:34;8.07;;;4.53;;
12076;SDS011;12420;42.676;23.262;2022-07-22T07:45:01;10.50;;;4.88;;
12076;SDS011;12420;42.676;23.262;2022-07-22T07:47:28;9.15;;;4.88;;
12076;SDS011;12420;42.676;23.262;2022-07-22T07:49:54;8.43;;;4.85;;
12076;SDS011;12420;42.676;23.262;2022-07-22T07:52:22;10.20;;;5.28;;
12076;SDS011;12420;42.676;23.262;2022-07-22T07:54:49;8.25;;;5.13;;
12076;SDS011;12420;42.676;23.262;2022-07-22T07:57:18;8.60;;;4.68;;
12076;SDS011;12420;42.676;23.262;2022-07-22T07:59:44;5.63;;;4.50;;
12076;SDS011;12420;42.676;23.262;2022-07-22T08:02:11;9.02;;;3.95;;
12076;SDS011;12420;42.676;23.262;2022-07-22T08:04:38;12.15;;;4.35;;
12076;SDS011;12420;42.676;23.262;2022-07-22T08:07:05;7.03;;;4.32;;
12076;SDS011;12420;42.676;23.262;2022-07-22T08:09:33;15.48;;;4.18;;
12076;SDS011;12420;42.676;23.262;2022-07-22T08:12:02;11.25;;;4.40;;
12076;SDS011;12420;42.676;23.262;2022-07-22T08:14:31;4.93;;;4.35;;
12076;SDS011;12420;42.676;23.262;2022-07-22T08:16:58;4.47;;;4.07;;
12076;SDS011;12420;42.676;23.262;2022-07-22T08:19:25;5.82;;;4.15;;
12076;SDS011;12420;42.676;23.262;2022-07-22T08:21:52;7.05;;;4.50;;
12076;SDS011;12420;42.676;23.262;2022-07-22T08:24:18;4.30;;;3.80;;
12076;SDS011;12420;42.676;23.262;2022-07-22T08:26:45;5.78;;;3.72;;
12076;SDS011;12420;42.676;23.262;2022-07-22T08:29:12;4.68;;;3.92;;
12076;SDS011;12420;42.676;23.262;2022-07-22T08:31:40;4.75;;;3.63;;
12076;SDS011;12420;42.676;23.262;2022-07-22T08:34:07;5.93;;;4.03;;
12076;SDS011;12420;42.676;23.262;2022-07-22T08:36:34;8.05;;;4.20;;
12076;SDS011;12420;42.676;23.262;2022-07-22T08:39:01;4.78;;;4.22;;
12076;SDS011;12420;42.676;23.262;2022-07-22T08:41:28;5.72;;;4.28;;
12076;SDS011;12420;42.676;23.262;2022-07-22T08:44:02;7.05;;;4.13;;
12076;SDS011;12420;42.676;23.262;2022-07-22T08:46:29;8.38;;;4.03;;
12076;SDS011;12420;42.676;23.262;2022-07-22T08:48:57;6.57;;;4.60;;
12076;SDS011;12420;42.676;23.262;2022-07-22T08:51:25;5.88;;;4.15;;
12076;SDS011;12420;42.676;23.262;2022-07-22T08:54:06;5.75;;;4.25;;
12076;SDS011;12420;42.676;23.262;2022-07-22T08:56:36;6.95;;;4.38;;
12076;SDS011;12420;42.676;23.262;2022-07-22T08:59:03;5.78;;;4.32;;
12076;SDS011;12420;42.676;23.262;2022-07-22T09:01:32;6.50;;;3.83;;
12076;SDS011;12420;42.676;23.262;2022-07-22T09:04:12;9.23;;;4.85;;
12076;SDS011;12420;42.676;23.262;2022-07-22T09:06:42;5.63;;;4.28;;
12076;SDS011;12420;42.676;23.262;2022-07-22T09:09:14;4.90;;;4.40;;
12076;SDS011;12420;42.676;23.262;2022-07-22T09:11:41;10.00;;;4.70;;
12076;SDS011;12420;42.676;23.262;2022-07-22T09:14:08;8.25;;;4.60;;
12076;SDS011;12420;42.676;23.262;2022-07-22T09:16:38;4.50;;;4.10;;
12076;SDS011;12420;42.676;23.262;2022-07-22T09:19:05;6.65;;;4.47;;
12076;SDS011;12420;42.676;23.262;2022-07-22T09:21:35;5.75;;;4.18;;
12076;SDS011;12420;42.676;23.262;2022-07-22T09:24:04;5.40;;;4.82;;
12076;SDS011;12420;42.676;23.262;2022-07-22T09:26:32;10.63;;;4.80;;
12076;SDS011;12420;42.676;23.262;2022-07-22T09:29:00;7.97;;;4.85;;
12076;SDS011;12420;42.676;23.262;2022-07-22T09:31:29;9.18;;;4.38;;
12076;SDS011;12420;42.676;23.262;2022-07-22T09:33:57;4.72;;;4.15;;
12076;SDS011;12420;42.676;23.262;2022-07-22T09:36:24;6.38;;;4.47;;
12076;SDS011;12420;42.676;23.262;2022-07-22T09:38:53;6.15;;;4.53;;
12076;SDS011;12420;42.676;23.262;2022-07-22T09:41:20;5.63;;;4.45;;
12076;SDS011;12420;42.676;23.262;2022-07-22T09:43:47;6.60;;;4.90;;
12076;SDS011;12420;42.676;23.262;2022-07-22T09:46:15;6.50;;;4.63;;
12076;SDS011;12420;42.676;23.262;2022-07-22T09:48:42;7.35;;;4.70;;
12076;SDS011;12420;42.676;23.262;2022-07-22T09:51:09;6.05;;;4.40;;
12076;SDS011;12420;42.676;23.262;2022-07-22T09:53:36;10.30;;;4.38;;
12076;SDS011;12420;42.676;23.262;2022-07-22T09:56:08;6.53;;;4.35;;
12076;SDS011;12420;42.676;23.262;2022-07-22T09:58:38;7.10;;;4.85;;
12076;SDS011;12420;42.676;23.262;2022-07-22T10:01:07;6.97;;;4.30;;
12076;SDS011;12420;42.676;23.262;2022-07-22T10:03:35;7.07;;;4.63;;
12076;SDS011;12420;42.676;23.262;2022-07-22T10:06:04;4.70;;;4.22;;
12076;SDS011;12420;42.676;23.262;2022-07-22T10:08:32;5.78;;;4.30;;
12076;SDS011;12420;42.676;23.262;2022-07-22T10:11:04;7.43;;;4.15;;
12076;SDS011;12420;42.676;23.262;2022-07-22T10:13:34;6.97;;;4.30;;
12076;SDS011;12420;42.676;23.262;2022-07-22T10:16:04;6.13;;;5.00;;
12076;SDS011;12420;42.676;23.262;2022-07-22T10:18:32;7.18;;;6.10;;
12076;SDS011;12420;42.676;23.262;2022-07-22T10:21:05;8.65;;;5.40;;
12076;SDS011;12420;42.676;23.262;2022-07-22T10:23:33;4.93;;;4.32;;
12076;SDS011;12420;42.676;23.262;2022-07-22T10:26:01;9.70;;;4.50;;
12076;SDS011;12420;42.676;23.262;2022-07-22T10:28:30;7.15;;;4.53;;
12076;SDS011;12420;42.676;23.262;2022-07-22T10:33:49;7.18;;;4.20;;
12076;SDS011;12420;42.676;23.262;2022-07-22T10:36:29;5.65;;;5.00;;
12076;SDS011;12420;42.676;23.262;2022-07-22T10:39:05;7.53;;;4.40;;
12076;SDS011;12420;42.676;23.262;2022-07-22T10:41:33;6.13;;;4.03;;
12076;SDS011;12420;42.676;23.262;2022-07-22T10:44:01;7.75;;;4.32;;
12076;SDS011;12420;42.676;23.262;2022-07-22T10:49:19;7.70;;;4.93;;
12076;SDS011;12420;42.676;23.262;2022-07-22T10:57:42;8.00;;;4.70;;
12076;SDS011;12420;42.676;23.262;2022-07-22T11:00:09;7.38;;;4.20;;
12076;SDS011;12420;42.676;23.262;2022-07-22T11:02:39;8.52;;;4.53;;
12076;SDS011;12420;42.676;23.262;2022-07-22T11:05:07;4.57;;;3.90;;
12076;SDS011;12420;42.676;23.262;2022-07-22T11:07:40;6.18;;;4.50;;
12076;SDS011;12420;42.676;23.262;2022-07-22T11:10:08;6.55;;;4.53;;
12076;SDS011;12420;42.676;23.262;2022-07-22T11:12:36;8.40;;;4.40;;
12076;SDS011;12420;42.676;23.262;2022-07-22T11:15:04;16.33;;;4.93;;
12076;SDS011;12420;42.676;23.262;2022-07-22T11:17:32;6.90;;;4.38;;
12076;SDS011;12420;42.676;23.262;2022-07-22T11:20:02;6.82;;;4.22;;
12076;SDS011;12420;42.676;23.262;2022-07-22T11:22:30;6.85;;;4.70;;
12076;SDS011;12420;42.676;23.262;2022-07-22T11:24:57;9.52;;;4.43;;
12076;SDS011;12420;42.676;23.262;2022-07-22T11:27:26;7.05;;;4.53;;
12076;SDS011;12420;42.676;23.262;2022-07-22T11:29:54;4.97;;;4.47;;
12076;SDS011;12420;42.676;23.262;2022-07-22T11:32:21;5.18;;;4.07;;
12076;SDS011;12420;42.676;23.262;2022-07-22T11:34:49;8.70;;;4.35;;
12076;SDS011;12420;42.676;23.262;2022-07-22T11:37:18;5.22;;;4.18;;
12076;SDS011;12420;42.676;23.262;2022-07-22T11:39:48;5.85;;;4.70;;
12076;SDS011;12420;42.676;23.262;2022-07-22T11:42:15;7.38;;;4.85;;
12076;SDS011;12420;42.676;23.262;2022-07-22T11:44:42;4.97;;;4.55;;
12076;SDS011;12420;42.676;23.262;2022-07-22T11:47:10;5.47;;;4.25;;
12076;SDS011;12420;42.676;23.262;2022-07-22T11:49:38;4.85;;;4.38;;
12076;SDS011;12420;42.676;23.262;2022-07-22T11:52:06;4.82;;;4.10;;
12076;SDS011;12420;42.676;23.262;2022-07-22T11:54:38;8.07;;;4.43;;
12076;SDS011;12420;42.676;23.262;2022-07-22T11:57:05;4.90;;;4.10;;
12076;SDS011;12420;42.676;23.262;2022-07-22T11:59:32;5.82;;;4.43;;
12076;SDS011;12420;42.676;23.262;2022-07-22T12:02:01;5.97;;;4.40;;
12076;SDS011;12420;42.676;23.262;2022-07-22T12:04:29;5.45;;;4.38;;
12076;SDS011;12420;42.676;23.262;2022-07-22T12:06:58;6.07;;;4.32;;
12076;SDS011;12420;42.676;23.262;2022-07-22T12:09:28;4.75;;;4.35;;
12076;SDS011;12420;42.676;23.262;2022-07-22T12:12:00;7.07;;;4.13;;
12076;SDS011;12420;42.676;23.262;2022-07-22T12:14:28;9.23;;;4.47;;
12076;SDS011;12420;42.676;23.262;2022-07-22T12:16:57;8.10;;;4.80;;
12076;SDS011;12420;42.676;23.262;2022-07-22T12:19:24;9.95;;;5.10;;
12076;SDS011;12420;42.676;23.262;2022-07-22T12:21:55;6.22;;;4.43;;
12076;SDS011;12420;42.676;23.262;2022-07-22T12:24:28;4.95;;;4.43;;
12076;SDS011;12420;42.676;23.262;2022-07-22T12:26:57;6.95;;;4.60;;
12076;SDS011;12420;42.676;23.262;2022-07-22T12:29:28;7.32;;;4.70;;
12076;SDS011;12420;42.676;23.262;2022-07-22T12:31:57;5.13;;;4.63;;
12076;SDS011;12420;42.676;23.262;2022-07-22T12:34:32;6.32;;;4.35;;
12076;SDS011;12420;42.676;23.262;2022-07-22T12:37:01;5.38;;;4.57;;
12076;SDS011;12420;42.676;23.262;2022-07-22T12:39:38;6.53;;;4.22;;
12076;SDS011;12420;42.676;23.262;2022-07-22T12:42:15;5.32;;;4.30;;
12076;SDS011;12420;42.676;23.262;2022-07-22T12:44:51;4.97;;;4.55;;
12076;SDS011;12420;42.676;23.262;2022-07-22T12:50:23;5.53;;;4.50;;
12076;SDS011;12420;42.676;23.262;2022-07-22T12:52:52;7.95;;;3.92;;
12076;SDS011;12420;42.676;23.262;2022-07-22T12:55:21;7.68;;;4.30;;
12076;SDS011;12420;42.676;23.262;2022-07-22T12:57:48;9.93;;;4.32;;
12076;SDS011;12420;42.676;23.262;2022-07-22T13:00:20;10.90;;;4.45;;
12076;SDS011;12420;42.676;23.262;2022-07-22T13:02:49;6.75;;;4.53;;
12076;SDS011;12420;42.676;23.262;2022-07-22T13:05:16;5.72;;;4.60;;
12076;SDS011;12420;42.676;23.262;2022-07-22T13:07:43;5.18;;;4.68;;
12076;SDS011;12420;42.676;23.262;2022-07-22T13:10:11;10.20;;;4.72;;
12076;SDS011;12420;42.676;23.262;2022-07-22T13:12:38;7.10;;;4.63;;
12076;SDS011;12420;42.676;23.262;2022-07-22T13:15:06;6.35;;;4.15;;
12076;SDS011;12420;42.676;23.262;2022-07-22T13:17:35;11.43;;;4.50;;
12076;SDS011;12420;42.676;23.262;2022-07-22T13:20:02;14.48;;;4.57;;
12076;SDS011;12420;42.676;23.262;2022-07-22T13:22:30;6.22;;;4.07;;
12076;SDS011;12420;42.676;23.262;2022-07-22T13:24:59;5.57;;;4.40;;
12076;SDS011;12420;42.676;23.262;2022-07-22T13:27:26;6.00;;;4.15;;
12076;SDS011;12420;42.676;23.262;2022-07-22T13:29:54;9.32;;;4.95;;
12076;SDS011;12420;42.676;23.262;2022-07-22T13:32:21;8.68;;;5.10;;
12076;SDS011;12420;42.676;23.262;2022-07-22T13:34:49;5.93;;;4.38;;
12076;SDS011;12420;42.676;23.262;2022-07-22T13:37:16;8.48;;;4.45;;
12076;SDS011;12420;42.676;23.262;2022-07-22T13:39:43;6.75;;;4.80;;
12076;SDS011;12420;42.676;23.262;2022-07-22T13:42:11;6.97;;;4.53;;
12076;SDS011;12420;42.676;23.262;2022-07-22T13:44:39;8.32;;;4.75;;
12076;SDS011;12420;42.676;23.262;2022-07-22T13:47:07;8.80;;;4.55;;
12076;SDS011;12420;42.676;23.262;2022-07-22T13:49:34;8.63;;;4.40;;
12076;SDS011;12420;42.676;23.262;2022-07-22T13:52:02;5.90;;;5.00;;
12076;SDS011;12420;42.676;23.262;2022-07-22T13:54:29;7.38;;;4.80;;
12076;SDS011;12420;42.676;23.262;2022-07-22T13:56:57;5.15;;;4.53;;
12076;SDS011;12420;42.676;23.262;2022-07-22T13:59:25;6.22;;;4.40;;
12076;SDS011;12420;42.676;23.262;2022-07-22T14:01:52;7.55;;;4.68;;
12076;SDS011;12420;42.676;23.262;2022-07-22T14:04:19;6.10;;;4.43;;
12076;SDS011;12420;42.676;23.262;2022-07-22T14:06:46;5.85;;;4.53;;
12076;SDS011;12420;42.676;23.262;2022-07-22T14:09:14;5.43;;;4.30;;
12076;SDS011;12420;42.676;23.262;2022-07-22T14:11:41;5.22;;;4.43;;
12076;SDS011;12420;42.676;23.262;2022-07-22T14:14:08;10.73;;;4.85;;
12076;SDS011;12420;42.676;23.262;2022-07-22T14:16:36;5.05;;;4.53;;
12076;SDS011;12420;42.676;23.262;2022-07-22T14:19:03;4.55;;;4.00;;
12076;SDS011;12420;42.676;23.262;2022-07-22T14:21:32;10.10;;;4.25;;
12076;SDS011;12420;42.676;23.262;2022-07-22T14:23:59;8.25;;;4.50;;
12076;SDS011;12420;42.676;23.262;2022-07-22T14:26:28;5.47;;;4.20;;
12076;SDS011;12420;42.676;23.262;2022-07-22T14:28:55;5.00;;;4.55;;
12076;SDS011;12420;42.676;23.262;2022-07-22T14:31:22;5.60;;;4.30;;
12076;SDS011;12420;42.676;23.262;2022-07-22T14:33:54;9.20;;;4.47;;
12076;SDS011;12420;42.676;23.262;2022-07-22T14:36:21;7.90;;;4.55;;
12076;SDS011;12420;42.676;23.262;2022-07-22T14:38:48;8.43;;;4.47;;
12076;SDS011;12420;42.676;23.262;2022-07-22T14:41:16;8.00;;;4.85;;
12076;SDS011;12420;42.676;23.262;2022-07-22T14:43:45;7.35;;;4.35;;
12076;SDS011;12420;42.676;23.262;2022-07-22T14:46:11;4.38;;;3.80;;
12076;SDS011;12420;42.676;23.262;2022-07-22T14:48:40;5.53;;;3.97;;